Terminal Aerodrome Forecast
Issued by NWS Tampa Bay Area, FL

Home | Current Version | Previous Version | Text Only | Print | Product List | Glossary On
Versions: 1 2 3 4 5 6 7 8 9 10 11 12
076
FTUS42 KTBW 121123
TAFFMY
TAF
KFMY 121123Z 1212/1312 VRB03KT P6SM SKC
     FM121800 26008KT P6SM SKC
     FM130000 29004KT P6SM SKC
     FM130900 30005KT 6SM BR FEW020=

USA.gov is the U.S. government's official web portal to all federal, state and local government web resources and services.